AAR243 KSEA-RKSI
Flight info
| Callsign | AAR243 |
|---|---|
| Flight time | N/A |
| Altitude | 32000 |
| Route | BANGR9 ARRIE J523 TOU DCT FINGS DCT KATCH B757 CJAYY DCT 58N160W DCT SPY G469 PINTT DCT OBOYD DCT NATES R220 NODAN R217 ASTER Y514 SDE Y512 GTC Y142 SAMON Y14 SUGNO Y16 SAPRA Y685 CUN CUN2M |
| Aircraft | B744/H-SDE1E2E3FGHIJ3J5M1P1RWXYZ/LB1D1 |
Departure
| Time | 2026-05-06 05:20 |
|---|---|
| Airport | Seattle–Tacoma International Airport (KSEA) |
Arrival
| Time | N/A |
|---|---|
| Airport | Incheon International Airport (RKSI) |
| Time | Latitude | Longitude | Altitude | Speed | Heading |
|---|---|---|---|---|---|
| 2026-05-06 04:54 | 47.45185 | -122.30365 | 446 ft | 0 kts | 90° |
| 2026-05-06 05:11 | 47.45185 | -122.30367 | 446 ft | 1 kts | 90° |
| 2026-05-06 05:11 | 47.45185 | -122.30389 | 446 ft | 3 kts | 90° |
| 2026-05-06 05:11 | 47.45185 | -122.30419 | 446 ft | 3 kts | 90° |
| 2026-05-06 05:12 | 47.45185 | -122.30447 | 446 ft | 2 kts | 90° |
| 2026-05-06 05:12 | 47.45185 | -122.30470 | 446 ft | 3 kts | 74° |
| 2026-05-06 05:12 | 47.45180 | -122.30490 | 446 ft | 3 kts | 41° |
| 2026-05-06 05:12 | 47.45167 | -122.30502 | 446 ft | 3 kts | 12° |
| 2026-05-06 05:13 | 47.45147 | -122.30506 | 446 ft | 3 kts | 0° |
| 2026-05-06 05:13 | 47.45133 | -122.30506 | 446 ft | 1 kts | 358° |
| 2026-05-06 05:13 | 47.45130 | -122.30506 | 446 ft | 0 kts | 358° |
| 2026-05-06 05:16 | 47.45142 | -122.30506 | 446 ft | 7 kts | 358° |
| 2026-05-06 05:16 | 47.45247 | -122.30510 | 446 ft | 23 kts | 0° |
| 2026-05-06 05:16 | 47.45407 | -122.30509 | 446 ft | 22 kts | 360° |
| 2026-05-06 05:16 | 47.45560 | -122.30510 | 446 ft | 22 kts | 360° |
| 2026-05-06 05:17 | 47.45702 | -122.30533 | 446 ft | 21 kts | 303° |
| 2026-05-06 05:17 | 47.45805 | -122.30626 | 446 ft | 21 kts | 3° |
| 2026-05-06 05:17 | 47.45950 | -122.30621 | 446 ft | 20 kts | 359° |
| 2026-05-06 05:17 | 47.46088 | -122.30620 | 446 ft | 19 kts | 0° |
| 2026-05-06 05:18 | 47.46220 | -122.30619 | 446 ft | 18 kts | 0° |
| 2026-05-06 05:18 | 47.46343 | -122.30631 | 446 ft | 18 kts | 326° |
| 2026-05-06 05:18 | 47.46344 | -122.30773 | 446 ft | 11 kts | 196° |
| 2026-05-06 05:18 | 47.46271 | -122.30781 | 446 ft | 10 kts | 179° |
| 2026-05-06 05:19 | 47.46115 | -122.30781 | 446 ft | 45 kts | 180° |
| 2026-05-06 05:19 | 47.45563 | -122.30783 | 446 ft | 113 kts | 181° |
| 2026-05-06 05:19 | 47.44558 | -122.30794 | 449 ft | 174 kts | 181° |
| 2026-05-06 05:19 | 47.43277 | -122.30805 | 904 ft | 188 kts | 181° |
| 2026-05-06 05:20 | 47.41976 | -122.30805 | 1796 ft | 188 kts | 181° |
| 2026-05-06 05:20 | 47.40637 | -122.30821 | 2440 ft | 195 kts | 181° |
| 2026-05-06 05:20 | 47.39268 | -122.30841 | 2949 ft | 200 kts | 181° |
| 2026-05-06 05:20 | 47.37831 | -122.30889 | 3237 ft | 216 kts | 182° |
| 2026-05-06 05:21 | 47.36267 | -122.30961 | 3333 ft | 234 kts | 182° |
| 2026-05-06 05:21 | 47.34585 | -122.31203 | 3457 ft | 252 kts | 193° |
| 2026-05-06 05:21 | 47.32934 | -122.32168 | 3820 ft | 260 kts | 209° |
| 2026-05-06 05:21 | 47.31512 | -122.33781 | 4304 ft | 264 kts | 225° |
| 2026-05-06 05:22 | 47.30404 | -122.35944 | 4819 ft | 266 kts | 240° |
| 2026-05-06 05:22 | 47.29714 | -122.38484 | 5320 ft | 271 kts | 255° |
| 2026-05-06 05:22 | 47.29496 | -122.41237 | 5882 ft | 270 kts | 271° |
| 2026-05-06 05:22 | 47.29775 | -122.43942 | 6547 ft | 267 kts | 286° |
| 2026-05-06 05:23 | 47.30512 | -122.46468 | 6905 ft | 270 kts | 300° |
| 2026-05-06 05:23 | 47.31586 | -122.48763 | 7045 ft | 273 kts | 308° |
| 2026-05-06 05:23 | 47.34238 | -122.52727 | 7094 ft | 271 kts | 320° |
| 2026-05-06 05:24 | 47.35684 | -122.54511 | 7088 ft | 272 kts | 319° |
| 2026-05-06 05:24 | 47.37121 | -122.56325 | 7087 ft | 271 kts | 319° |
| 2026-05-06 05:24 | 47.38550 | -122.58142 | 7087 ft | 271 kts | 319° |
| 2026-05-06 05:24 | 47.39954 | -122.59931 | 7088 ft | 271 kts | 320° |
| 2026-05-06 05:25 | 47.41416 | -122.61764 | 7089 ft | 271 kts | 320° |
| 2026-05-06 05:25 | 47.42850 | -122.63577 | 7088 ft | 272 kts | 319° |
| 2026-05-06 05:25 | 47.43774 | -122.64756 | 7088 ft | 272 kts | 319° |
| 2026-05-06 05:25 | 47.45703 | -122.67232 | 7089 ft | 271 kts | 319° |
| 2026-05-06 05:26 | 47.47129 | -122.69071 | 7088 ft | 272 kts | 319° |
| 2026-05-06 05:26 | 47.48552 | -122.70908 | 7089 ft | 272 kts | 319° |
| 2026-05-06 05:26 | 47.49491 | -122.72124 | 7090 ft | 271 kts | 319° |
| 2026-05-06 05:26 | 47.50913 | -122.73966 | 7088 ft | 271 kts | 319° |
| 2026-05-06 05:27 | 47.52789 | -122.76402 | 7089 ft | 271 kts | 319° |
| 2026-05-06 05:27 | 47.54209 | -122.78244 | 7089 ft | 271 kts | 319° |
| 2026-05-06 05:27 | 47.55622 | -122.80084 | 7093 ft | 270 kts | 319° |
| 2026-05-06 05:27 | 47.57039 | -122.81925 | 7090 ft | 271 kts | 319° |
| 2026-05-06 05:28 | 47.57999 | -122.83173 | 7090 ft | 272 kts | 319° |
| 2026-05-06 05:28 | 47.59420 | -122.85020 | 7089 ft | 272 kts | 319° |
| 2026-05-06 05:28 | 47.60837 | -122.86865 | 7084 ft | 271 kts | 319° |
| 2026-05-06 05:28 | 47.62256 | -122.88708 | 7087 ft | 271 kts | 319° |
| 2026-05-06 05:29 | 47.63670 | -122.90564 | 7085 ft | 272 kts | 316° |
| 2026-05-06 05:29 | 47.64916 | -122.92660 | 7089 ft | 271 kts | 308° |
| 2026-05-06 05:29 | 47.65994 | -122.94916 | 7086 ft | 272 kts | 304° |
| 2026-05-06 05:29 | 47.67019 | -122.97321 | 7085 ft | 272 kts | 302° |
| 2026-05-06 05:30 | 47.67979 | -122.99694 | 7082 ft | 272 kts | 302° |
| 2026-05-06 05:30 | 47.68958 | -123.02105 | 7084 ft | 273 kts | 302° |
| 2026-05-06 05:30 | 47.69945 | -123.04514 | 7082 ft | 273 kts | 302° |
| 2026-05-06 05:30 | 47.70946 | -123.06912 | 7079 ft | 273 kts | 303° |
| 2026-05-06 05:31 | 47.71971 | -123.09294 | 7091 ft | 274 kts | 303° |
| 2026-05-06 05:31 | 47.72992 | -123.11684 | 7079 ft | 274 kts | 303° |
| 2026-05-06 05:31 | 47.74004 | -123.14072 | 7078 ft | 273 kts | 302° |
| 2026-05-06 05:31 | 47.75011 | -123.16458 | 7084 ft | 273 kts | 302° |
| 2026-05-06 05:32 | 47.76016 | -123.18848 | 7082 ft | 273 kts | 302° |
| 2026-05-06 05:32 | 47.77020 | -123.21242 | 7083 ft | 273 kts | 302° |
| 2026-05-06 05:32 | 47.78021 | -123.23636 | 7074 ft | 275 kts | 302° |
| 2026-05-06 05:32 | 47.79046 | -123.26087 | 7094 ft | 277 kts | 302° |
| 2026-05-06 05:33 | 47.80056 | -123.28510 | 7084 ft | 275 kts | 302° |
| 2026-05-06 05:33 | 47.81058 | -123.30916 | 7068 ft | 274 kts | 302° |
| 2026-05-06 05:33 | 47.82062 | -123.33331 | 7073 ft | 275 kts | 302° |
| 2026-05-06 05:33 | 47.83081 | -123.35778 | 7081 ft | 282 kts | 302° |
| 2026-05-06 05:34 | 47.84128 | -123.38293 | 7081 ft | 286 kts | 302° |
| 2026-05-06 05:34 | 47.85175 | -123.40809 | 7083 ft | 286 kts | 302° |
| 2026-05-06 05:34 | 47.86211 | -123.43293 | 7095 ft | 278 kts | 302° |
| 2026-05-06 05:34 | 47.87220 | -123.45722 | 7084 ft | 274 kts | 302° |
| 2026-05-06 05:35 | 47.88216 | -123.48134 | 7091 ft | 273 kts | 301° |
| 2026-05-06 05:35 | 47.89171 | -123.50574 | 7079 ft | 272 kts | 300° |
| 2026-05-06 05:35 | 47.90084 | -123.53045 | 7091 ft | 272 kts | 299° |
| 2026-05-06 05:35 | 47.90989 | -123.55532 | 7083 ft | 273 kts | 299° |
| 2026-05-06 05:36 | 47.91895 | -123.58019 | 7089 ft | 273 kts | 299° |
| 2026-05-06 05:36 | 47.92804 | -123.60505 | 7091 ft | 273 kts | 299° |
| 2026-05-06 05:36 | 47.93720 | -123.62995 | 7082 ft | 274 kts | 299° |
| 2026-05-06 05:36 | 47.94635 | -123.65492 | 7086 ft | 274 kts | 299° |
| 2026-05-06 05:37 | 47.95532 | -123.67945 | 7083 ft | 272 kts | 299° |
| 2026-05-06 05:37 | 47.96440 | -123.70428 | 7077 ft | 273 kts | 298° |
| 2026-05-06 05:37 | 47.97347 | -123.72911 | 7089 ft | 273 kts | 299° |
| 2026-05-06 05:37 | 47.98259 | -123.75399 | 7085 ft | 274 kts | 299° |
| 2026-05-06 05:38 | 47.99172 | -123.77891 | 7083 ft | 273 kts | 299° |
| 2026-05-06 05:38 | 48.00083 | -123.80379 | 7087 ft | 273 kts | 299° |
| 2026-05-06 05:38 | 48.00992 | -123.82865 | 7090 ft | 273 kts | 299° |
| 2026-05-06 05:38 | 48.01904 | -123.85356 | 7091 ft | 274 kts | 299° |
| 2026-05-06 05:39 | 48.02814 | -123.87849 | 7092 ft | 273 kts | 299° |
| 2026-05-06 05:39 | 48.03724 | -123.90341 | 7086 ft | 273 kts | 298° |
| 2026-05-06 05:39 | 48.04635 | -123.92824 | 7092 ft | 272 kts | 299° |
| 2026-05-06 05:39 | 48.05564 | -123.95296 | 7095 ft | 273 kts | 299° |
| 2026-05-06 05:40 | 48.06488 | -123.97772 | 7098 ft | 273 kts | 299° |
| 2026-05-06 05:40 | 48.07409 | -124.00252 | 7098 ft | 272 kts | 299° |
| 2026-05-06 05:40 | 48.08325 | -124.02734 | 7101 ft | 273 kts | 299° |
| 2026-05-06 05:40 | 48.09239 | -124.05219 | 7102 ft | 273 kts | 299° |
| 2026-05-06 05:41 | 48.10152 | -124.07707 | 7104 ft | 273 kts | 299° |
| 2026-05-06 05:41 | 48.11062 | -124.10197 | 7107 ft | 273 kts | 298° |
| 2026-05-06 05:41 | 48.11970 | -124.12688 | 7109 ft | 273 kts | 298° |
| 2026-05-06 05:41 | 48.12879 | -124.15185 | 7102 ft | 273 kts | 298° |
| 2026-05-06 05:42 | 48.13785 | -124.17676 | 7102 ft | 273 kts | 298° |
| 2026-05-06 05:42 | 48.14696 | -124.20168 | 7103 ft | 273 kts | 299° |
| 2026-05-06 05:42 | 48.15620 | -124.22651 | 7097 ft | 273 kts | 299° |
| 2026-05-06 05:42 | 48.16536 | -124.25136 | 7097 ft | 273 kts | 299° |
| 2026-05-06 05:43 | 48.17446 | -124.27632 | 7100 ft | 273 kts | 298° |
| 2026-05-06 05:43 | 48.18351 | -124.30129 | 7101 ft | 273 kts | 298° |
| 2026-05-06 05:43 | 48.19252 | -124.32630 | 7101 ft | 273 kts | 298° |
| 2026-05-06 05:43 | 48.20152 | -124.35136 | 7105 ft | 273 kts | 298° |
| 2026-05-06 05:44 | 48.21040 | -124.37614 | 7109 ft | 274 kts | 298° |
| 2026-05-06 05:44 | 48.21952 | -124.40162 | 7110 ft | 274 kts | 298° |
| 2026-05-06 05:44 | 48.22851 | -124.42679 | 7107 ft | 273 kts | 298° |
| 2026-05-06 05:44 | 48.23747 | -124.45189 | 7108 ft | 273 kts | 298° |
| 2026-05-06 05:45 | 48.24641 | -124.47695 | 7109 ft | 273 kts | 298° |
| 2026-05-06 05:45 | 48.25540 | -124.50217 | 7108 ft | 274 kts | 298° |
| 2026-05-06 05:45 | 48.26439 | -124.52738 | 7107 ft | 274 kts | 298° |
| 2026-05-06 05:45 | 48.27337 | -124.55257 | 7106 ft | 274 kts | 298° |
| 2026-05-06 05:46 | 48.28225 | -124.57743 | 7110 ft | 274 kts | 298° |
| 2026-05-06 05:46 | 48.29124 | -124.60263 | 7110 ft | 274 kts | 298° |
| 2026-05-06 05:46 | 48.30133 | -124.62675 | 7105 ft | 272 kts | 307° |
| 2026-05-06 05:46 | 48.31363 | -124.64817 | 7107 ft | 271 kts | 312° |
| 2026-05-06 05:47 | 48.32694 | -124.66837 | 7103 ft | 274 kts | 315° |
| 2026-05-06 05:47 | 48.34083 | -124.68812 | 7105 ft | 276 kts | 316° |
| 2026-05-06 05:47 | 48.35496 | -124.70776 | 7102 ft | 276 kts | 316° |
| 2026-05-06 05:47 | 48.36904 | -124.72744 | 7099 ft | 276 kts | 316° |
| 2026-05-06 05:48 | 48.38302 | -124.74711 | 7098 ft | 275 kts | 316° |
| 2026-05-06 05:48 | 48.39697 | -124.76685 | 7096 ft | 275 kts | 316° |
| 2026-05-06 05:48 | 48.41091 | -124.78666 | 7094 ft | 275 kts | 316° |
| 2026-05-06 05:48 | 48.42482 | -124.80652 | 7092 ft | 276 kts | 316° |
| 2026-05-06 05:49 | 48.43871 | -124.82639 | 7090 ft | 276 kts | 316° |
| 2026-05-06 05:49 | 48.45257 | -124.84628 | 7088 ft | 276 kts | 316° |
| 2026-05-06 05:49 | 48.46645 | -124.86624 | 7086 ft | 276 kts | 316° |
| 2026-05-06 05:49 | 48.48029 | -124.88618 | 7084 ft | 276 kts | 315° |
| 2026-05-06 05:50 | 48.49414 | -124.90616 | 7082 ft | 276 kts | 315° |
| 2026-05-06 05:50 | 48.50800 | -124.92619 | 7081 ft | 276 kts | 315° |
| 2026-05-06 05:50 | 48.52182 | -124.94618 | 7080 ft | 276 kts | 315° |
| 2026-05-06 05:50 | 48.53566 | -124.96623 | 7089 ft | 275 kts | 315° |
| 2026-05-06 05:51 | 48.54950 | -124.98620 | 7089 ft | 276 kts | 316° |
| 2026-05-06 05:51 | 48.56349 | -125.00605 | 7087 ft | 276 kts | 316° |
| 2026-05-06 05:51 | 48.57744 | -125.02588 | 7084 ft | 276 kts | 316° |
| 2026-05-06 05:51 | 48.59140 | -125.04581 | 7082 ft | 276 kts | 316° |
| 2026-05-06 05:52 | 48.60531 | -125.06575 | 7080 ft | 276 kts | 316° |
| 2026-05-06 05:52 | 48.61911 | -125.08561 | 7078 ft | 276 kts | 315° |
| 2026-05-06 05:52 | 48.63309 | -125.10575 | 7076 ft | 276 kts | 315° |
| 2026-05-06 05:52 | 48.64696 | -125.12578 | 7074 ft | 276 kts | 315° |
| 2026-05-06 05:53 | 48.66084 | -125.14586 | 7072 ft | 276 kts | 315° |
| 2026-05-06 05:53 | 48.67468 | -125.16592 | 7070 ft | 276 kts | 315° |
| 2026-05-06 05:53 | 48.68854 | -125.18603 | 7068 ft | 276 kts | 315° |
| 2026-05-06 05:53 | 48.70240 | -125.20617 | 7066 ft | 276 kts | 315° |
| 2026-05-06 05:54 | 48.71624 | -125.22630 | 7064 ft | 276 kts | 315° |
| 2026-05-06 05:54 | 48.73007 | -125.24644 | 7062 ft | 276 kts | 315° |
| 2026-05-06 05:54 | 48.74392 | -125.26664 | 7061 ft | 276 kts | 315° |
| 2026-05-06 05:54 | 48.75774 | -125.28679 | 7073 ft | 276 kts | 315° |
| 2026-05-06 05:55 | 48.77155 | -125.30696 | 7080 ft | 276 kts | 315° |
| 2026-05-06 05:55 | 48.78539 | -125.32719 | 7079 ft | 276 kts | 315° |
| 2026-05-06 05:55 | 48.79920 | -125.34739 | 7081 ft | 276 kts | 315° |
| 2026-05-06 05:55 | 48.81304 | -125.36765 | 7073 ft | 276 kts | 315° |
| 2026-05-06 05:56 | 48.82687 | -125.38790 | 7071 ft | 276 kts | 315° |
| 2026-05-06 05:56 | 48.84047 | -125.40786 | 7138 ft | 273 kts | 315° |
| 2026-05-06 05:56 | 48.85404 | -125.42777 | 7657 ft | 272 kts | 315° |
| 2026-05-06 05:56 | 48.86800 | -125.44829 | 8126 ft | 278 kts | 315° |
| 2026-05-06 05:57 | 48.88202 | -125.46887 | 8649 ft | 282 kts | 315° |
| 2026-05-06 05:57 | 48.89628 | -125.48986 | 9109 ft | 287 kts | 315° |
| 2026-05-06 05:57 | 48.91055 | -125.51090 | 9766 ft | 285 kts | 315° |
| 2026-05-06 05:57 | 48.92478 | -125.53188 | 10315 ft | 288 kts | 315° |
| 2026-05-06 05:58 | 48.93939 | -125.55343 | 10630 ft | 299 kts | 315° |
| 2026-05-06 05:58 | 48.95475 | -125.57612 | 10753 ft | 317 kts | 315° |
| 2026-05-06 05:58 | 48.97082 | -125.59987 | 10878 ft | 335 kts | 315° |
| 2026-05-06 05:58 | 48.98797 | -125.62526 | 11008 ft | 353 kts | 315° |
| 2026-05-06 05:59 | 49.00605 | -125.65201 | 11151 ft | 372 kts | 315° |
| 2026-05-06 05:59 | 49.02528 | -125.68054 | 11282 ft | 390 kts | 315° |
| 2026-05-06 05:59 | 49.04519 | -125.71010 | 11434 ft | 407 kts | 315° |
| 2026-05-06 05:59 | 49.06565 | -125.74051 | 11887 ft | 415 kts | 315° |
| 2026-05-06 06:00 | 49.08620 | -125.77109 | 12397 ft | 421 kts | 315° |
| 2026-05-06 06:00 | 49.10727 | -125.80248 | 12986 ft | 425 kts | 315° |
| 2026-05-06 06:00 | 49.12847 | -125.83411 | 13571 ft | 428 kts | 314° |
| 2026-05-06 06:00 | 49.14982 | -125.86599 | 14153 ft | 431 kts | 314° |
| 2026-05-06 06:01 | 49.17134 | -125.89818 | 14718 ft | 434 kts | 314° |
| 2026-05-06 06:01 | 49.19294 | -125.93051 | 15293 ft | 437 kts | 314° |
| 2026-05-06 06:01 | 49.21478 | -125.96326 | 15822 ft | 441 kts | 314° |
| 2026-05-06 06:01 | 49.23673 | -125.99622 | 16357 ft | 444 kts | 314° |
| 2026-05-06 06:02 | 49.25887 | -126.02948 | 16819 ft | 449 kts | 313° |
| 2026-05-06 06:02 | 49.28119 | -126.06309 | 17305 ft | 451 kts | 313° |
| 2026-05-06 06:02 | 49.30332 | -126.09645 | 17817 ft | 454 kts | 313° |
| 2026-05-06 06:02 | 49.32618 | -126.13097 | 18308 ft | 457 kts | 313° |
| 2026-05-06 06:03 | 49.34892 | -126.16534 | 18771 ft | 460 kts | 313° |
| 2026-05-06 06:03 | 49.37175 | -126.19990 | 19219 ft | 464 kts | 313° |
| 2026-05-06 06:03 | 49.39480 | -126.23482 | 19657 ft | 467 kts | 313° |
| 2026-05-06 06:03 | 49.41797 | -126.26999 | 20093 ft | 470 kts | 313° |
| 2026-05-06 06:04 | 49.44127 | -126.30541 | 20520 ft | 473 kts | 313° |
| 2026-05-06 06:04 | 49.46468 | -126.34104 | 20963 ft | 475 kts | 313° |
| 2026-05-06 06:04 | 49.48823 | -126.37693 | 21346 ft | 478 kts | 313° |
| 2026-05-06 06:04 | 49.51194 | -126.41312 | 21745 ft | 481 kts | 313° |
| 2026-05-06 06:05 | 49.53577 | -126.44955 | 22122 ft | 484 kts | 313° |
| 2026-05-06 06:05 | 49.55971 | -126.48621 | 22496 ft | 487 kts | 313° |
| 2026-05-06 06:05 | 49.58383 | -126.52318 | 22872 ft | 490 kts | 313° |
| 2026-05-06 06:05 | 49.60804 | -126.56035 | 23220 ft | 493 kts | 313° |
| 2026-05-06 06:06 | 49.63238 | -126.59778 | 23571 ft | 496 kts | 313° |
| 2026-05-06 06:06 | 49.65686 | -126.63548 | 23884 ft | 499 kts | 313° |
| 2026-05-06 06:06 | 49.68148 | -126.67345 | 24210 ft | 501 kts | 313° |
| 2026-05-06 06:06 | 49.70615 | -126.71157 | 24551 ft | 503 kts | 313° |
| 2026-05-06 06:07 | 49.73093 | -126.74990 | 24878 ft | 505 kts | 313° |
| 2026-05-06 06:07 | 49.75574 | -126.78834 | 25315 ft | 504 kts | 312° |
| 2026-05-06 06:07 | 49.78041 | -126.82661 | 25846 ft | 501 kts | 312° |
| 2026-05-06 06:07 | 49.80498 | -126.86480 | 26318 ft | 499 kts | 312° |
| 2026-05-06 06:08 | 49.82945 | -126.90288 | 26722 ft | 499 kts | 312° |
| 2026-05-06 06:08 | 49.85385 | -126.94091 | 27193 ft | 496 kts | 312° |
| 2026-05-06 06:08 | 49.87815 | -126.97886 | 27620 ft | 495 kts | 312° |
| 2026-05-06 06:08 | 49.90226 | -127.01656 | 28043 ft | 493 kts | 312° |
| 2026-05-06 06:09 | 49.92646 | -127.05446 | 28430 ft | 492 kts | 312° |
| 2026-05-06 06:09 | 49.95047 | -127.09210 | 28823 ft | 490 kts | 312° |
| 2026-05-06 06:09 | 49.97439 | -127.12969 | 29161 ft | 489 kts | 311° |
| 2026-05-06 06:09 | 49.99829 | -127.16727 | 29512 ft | 488 kts | 311° |
| 2026-05-06 06:10 | 50.02206 | -127.20470 | 29944 ft | 484 kts | 311° |
| 2026-05-06 06:10 | 50.04590 | -127.24171 | 30259 ft | 484 kts | 311° |
| 2026-05-06 06:10 | 50.06961 | -127.27890 | 30490 ft | 484 kts | 311° |
| 2026-05-06 06:10 | 50.09273 | -127.31550 | 30748 ft | 483 kts | 311° |
| 2026-05-06 06:11 | 50.11665 | -127.35355 | 30991 ft | 483 kts | 311° |
| 2026-05-06 06:11 | 50.13220 | -127.37832 | 31164 ft | 482 kts | 310° |
| 2026-05-06 06:11 | 50.16353 | -127.42834 | 31450 ft | 482 kts | 310° |
| 2026-05-06 06:11 | 50.18665 | -127.46531 | 31632 ft | 482 kts | 310° |
| 2026-05-06 06:12 | 50.21005 | -127.50274 | 31830 ft | 482 kts | 310° |
| 2026-05-06 06:12 | 50.23344 | -127.54014 | 32009 ft | 482 kts | 310° |
| 2026-05-06 06:12 | 50.27799 | -127.61805 | 32114 ft | 480 kts | 306° |
| 2026-05-06 06:13 | 50.31291 | -127.68626 | 32111 ft | 479 kts | 304° |
| 2026-05-06 06:13 | 50.35432 | -127.76774 | 32113 ft | 479 kts | 304° |
| 2026-05-06 06:14 | 50.39589 | -127.84925 | 32113 ft | 479 kts | 305° |
| 2026-05-06 06:14 | 50.43748 | -127.93085 | 32113 ft | 479 kts | 305° |
| 2026-05-06 06:15 | 50.47921 | -128.01225 | 32112 ft | 479 kts | 305° |
| 2026-05-06 06:15 | 50.52108 | -128.09278 | 32112 ft | 479 kts | 305° |
| 2026-05-06 06:16 | 50.56296 | -128.17432 | 32111 ft | 479 kts | 304° |
| 2026-05-06 06:16 | 50.60470 | -128.25615 | 32111 ft | 479 kts | 304° |
| 2026-05-06 06:17 | 50.64629 | -128.33812 | 32108 ft | 479 kts | 304° |
| 2026-05-06 06:17 | 50.68782 | -128.42024 | 32111 ft | 479 kts | 304° |
| 2026-05-06 06:18 | 50.72930 | -128.50258 | 32114 ft | 479 kts | 304° |
| 2026-05-06 06:18 | 50.77074 | -128.58510 | 32113 ft | 479 kts | 304° |
| 2026-05-06 06:19 | 50.81211 | -128.66775 | 32116 ft | 479 kts | 303° |
| 2026-05-06 06:19 | 50.85327 | -128.75022 | 32117 ft | 480 kts | 303° |
| 2026-05-06 06:20 | 50.89472 | -128.83354 | 32117 ft | 480 kts | 303° |
| 2026-05-06 06:20 | 50.93595 | -128.91670 | 32117 ft | 480 kts | 303° |
| 2026-05-06 06:21 | 50.97712 | -129.00001 | 32117 ft | 480 kts | 303° |
| 2026-05-06 06:21 | 51.01823 | -129.08345 | 32117 ft | 480 kts | 303° |
| 2026-05-06 06:22 | 51.05929 | -129.16706 | 32118 ft | 480 kts | 303° |
| 2026-05-06 06:22 | 51.10032 | -129.25089 | 32118 ft | 480 kts | 303° |
| 2026-05-06 06:23 | 51.14132 | -129.33492 | 32118 ft | 481 kts | 302° |
| 2026-05-06 06:23 | 51.18225 | -129.41910 | 32122 ft | 480 kts | 302° |
| 2026-05-06 06:24 | 51.22315 | -129.50347 | 32118 ft | 481 kts | 302° |
| 2026-05-06 06:24 | 51.26401 | -129.58805 | 32122 ft | 481 kts | 302° |
| 2026-05-06 06:25 | 51.30477 | -129.67268 | 32120 ft | 481 kts | 302° |
| 2026-05-06 06:26 | 51.36582 | -129.79997 | 32121 ft | 481 kts | 302° |
| 2026-05-06 06:26 | 51.40646 | -129.88505 | 32123 ft | 481 kts | 302° |
| 2026-05-06 06:27 | 51.44703 | -129.97028 | 32129 ft | 481 kts | 302° |
| 2026-05-06 06:27 | 51.48731 | -130.05516 | 32125 ft | 481 kts | 301° |
| 2026-05-06 06:28 | 51.52778 | -130.14073 | 32126 ft | 481 kts | 301° |
| 2026-05-06 06:28 | 51.56816 | -130.22640 | 32128 ft | 481 kts | 301° |
| 2026-05-06 06:29 | 51.60847 | -130.31220 | 32130 ft | 481 kts | 301° |
| 2026-05-06 06:29 | 51.64871 | -130.39814 | 32132 ft | 481 kts | 301° |
| 2026-05-06 06:30 | 51.68892 | -130.48430 | 32134 ft | 481 kts | 301° |
| 2026-05-06 06:30 | 51.72909 | -130.57068 | 32135 ft | 481 kts | 301° |
| 2026-05-06 06:31 | 51.76919 | -130.65717 | 32138 ft | 482 kts | 301° |
| 2026-05-06 06:31 | 51.80924 | -130.74386 | 32173 ft | 481 kts | 301° |
| 2026-05-06 06:32 | 51.84927 | -130.83078 | 32175 ft | 482 kts | 301° |
| 2026-05-06 06:32 | 51.88925 | -130.91790 | 32171 ft | 482 kts | 301° |
| 2026-05-06 06:33 | 51.92914 | -131.00514 | 32178 ft | 482 kts | 301° |
| 2026-05-06 06:33 | 51.96904 | -131.09267 | 32178 ft | 483 kts | 301° |
| 2026-05-06 06:34 | 52.00887 | -131.18033 | 32192 ft | 483 kts | 300° |
| 2026-05-06 06:34 | 52.04853 | -131.26793 | 32194 ft | 481 kts | 300° |
| 2026-05-06 06:35 | 52.08807 | -131.35560 | 32196 ft | 481 kts | 300° |
| 2026-05-06 06:35 | 52.12755 | -131.44339 | 32196 ft | 481 kts | 300° |
| 2026-05-06 06:36 | 52.16702 | -131.53149 | 32198 ft | 482 kts | 300° |
| 2026-05-06 06:36 | 52.20646 | -131.61983 | 32198 ft | 482 kts | 300° |
| 2026-05-06 06:37 | 52.24589 | -131.70844 | 32194 ft | 483 kts | 299° |
| 2026-05-06 06:37 | 52.28525 | -131.79719 | 32190 ft | 483 kts | 299° |
| 2026-05-06 06:38 | 52.32456 | -131.88613 | 32194 ft | 482 kts | 299° |
| 2026-05-06 06:38 | 52.36376 | -131.97514 | 32196 ft | 482 kts | 299° |
| 2026-05-06 06:39 | 52.40293 | -132.06441 | 32202 ft | 483 kts | 299° |
| 2026-05-06 06:39 | 52.44202 | -132.15381 | 32194 ft | 482 kts | 299° |
| 2026-05-06 06:40 | 52.48099 | -132.24321 | 32199 ft | 482 kts | 299° |
| 2026-05-06 06:40 | 52.51990 | -132.33281 | 32200 ft | 482 kts | 299° |
| 2026-05-06 06:41 | 52.55872 | -132.42250 | 32201 ft | 482 kts | 298° |
| 2026-05-06 06:41 | 52.59745 | -132.51232 | 32201 ft | 481 kts | 298° |
| 2026-05-06 06:42 | 52.63584 | -132.60166 | 32202 ft | 481 kts | 298° |
| 2026-05-06 06:42 | 52.67433 | -132.69153 | 32202 ft | 480 kts | 298° |
| 2026-05-06 06:43 | 52.71271 | -132.78148 | 32202 ft | 480 kts | 298° |
| 2026-05-06 06:43 | 52.75108 | -132.87172 | 32201 ft | 480 kts | 298° |
| 2026-05-06 06:44 | 52.78936 | -132.96207 | 32202 ft | 480 kts | 298° |
| 2026-05-06 06:44 | 52.82751 | -133.05244 | 32201 ft | 480 kts | 298° |
| 2026-05-06 06:45 | 52.86562 | -133.14303 | 32201 ft | 479 kts | 298° |
| 2026-05-06 06:45 | 52.90361 | -133.23366 | 32201 ft | 479 kts | 298° |
| 2026-05-06 06:46 | 52.94156 | -133.32450 | 32201 ft | 479 kts | 298° |
| 2026-05-06 06:46 | 52.97934 | -133.41528 | 32200 ft | 480 kts | 298° |
| 2026-05-06 06:47 | 53.01733 | -133.50689 | 32199 ft | 479 kts | 298° |
| 2026-05-06 06:47 | 53.05500 | -133.59805 | 32199 ft | 478 kts | 297° |
| 2026-05-06 06:48 | 53.09259 | -133.68935 | 32199 ft | 478 kts | 297° |
| 2026-05-06 06:48 | 53.13007 | -133.78072 | 32198 ft | 478 kts | 297° |
| 2026-05-06 06:49 | 53.16751 | -133.87232 | 32198 ft | 478 kts | 297° |
| 2026-05-06 06:49 | 53.20488 | -133.96405 | 32197 ft | 478 kts | 297° |
| 2026-05-06 06:50 | 53.24217 | -134.05594 | 32197 ft | 479 kts | 297° |
| 2026-05-06 06:50 | 53.27950 | -134.14827 | 32196 ft | 480 kts | 297° |
| 2026-05-06 06:51 | 53.31672 | -134.24067 | 32204 ft | 479 kts | 297° |
| 2026-05-06 06:51 | 53.35390 | -134.33330 | 32202 ft | 479 kts | 297° |
| 2026-05-06 06:52 | 53.39098 | -134.42601 | 32204 ft | 479 kts | 297° |
| 2026-05-06 06:52 | 53.42795 | -134.51880 | 32203 ft | 479 kts | 296° |
| 2026-05-06 06:53 | 53.46487 | -134.61180 | 32203 ft | 479 kts | 296° |
| 2026-05-06 06:53 | 53.50170 | -134.70493 | 32203 ft | 479 kts | 296° |